SITKA HARBOR AK US NWS current weather conditions

sailwx.info

Wind from 020 at 6 knots gusting 20

Air temperature -2.3° C
Dewpoint -18.0° C

Last reported at 2020-Jan-18 13:03 UTC.
Time now 2020-Jan-18 14:00 UTC

Location: N 57°03' W 135°21'.
View on Google Maps.

See reports from other nearby stations

  
Tides and Currents Weather Stations Pressure Air Temp Water Temp Dewpoint Dewpoint Depression Visibility Wind Speed Wind Dir Waves Ship Positions
date/time (UTC)wind fromknots sea level pressurealtimeterstation pressurevisibilityair tempwater tempwave heightnotes
2020-Jan-18 13:03 020 6 gusting 20 -2.3
2020-Jan-18 12:53 030 6 gusting 20 -2.0
2020-Jan-18 12:42 040 11 gusting 21 -1.8
2020-Jan-18 12:33 080 6 gusting 26 -2.1
2020-Jan-18 12:23 090 5 gusting 18 -2.1
2020-Jan-18 12:13 100 6 gusting 13 -2.3
2020-Jan-18 12:03 170 5 gusting 11 -2.2
2020-Jan-18 11:53 070 5 gusting 18 -2.5
2020-Jan-18 11:43 030 6 gusting 15 -2.6
2020-Jan-18 11:33 030 7 gusting 19 -3.0
2020-Jan-18 11:23 020 11 gusting 22 -3.0
2020-Jan-18 11:13 020 9 gusting 27 -2.6
2020-Jan-18 11:03 020 8 gusting 21 -2.5
2020-Jan-18 10:53 020 8 gusting 20 -2.4
2020-Jan-18 10:43 060 6 gusting 17 -2.1
2020-Jan-18 10:33 050 6 gusting 20 -2.2
2020-Jan-18 10:23 030 8 gusting 27 -2.4
2020-Jan-18 10:13 030 8 gusting 20 -2.2
2020-Jan-18 10:03 080 6 gusting 22 -2.4
2020-Jan-18 09:53 120 5 gusting 17 -2.3
2020-Jan-18 09:43 090 6 gusting 17 -2.2
2020-Jan-18 09:33 070 6 gusting 14 -2.3
2020-Jan-18 09:23 070 6 gusting 18 -2.5
2020-Jan-18 09:13 070 6 gusting 19 -2.4
2020-Jan-18 09:03 050 6 gusting 15 -2.5
2020-Jan-18 08:53 080 5 gusting 15 -2.5
2020-Jan-18 08:43 040 6 gusting 15 -2.8
2020-Jan-18 08:33 050 6 gusting 21 -2.9
2020-Jan-18 08:23 050 6 gusting 15 -3.0
2020-Jan-18 08:13 060 5 gusting 13 -3.2
2020-Jan-18 08:03 040 9 gusting 24 -3.3
2020-Jan-18 07:53 040 6 gusting 18 -3.4
2020-Jan-18 07:43 050 6 gusting 19 -3.6
2020-Jan-18 07:33 050 7 gusting 18 -3.8
2020-Jan-18 07:23 040 6 gusting 19 -3.7
2020-Jan-18 07:13 030 7 gusting 21 -3.7
2020-Jan-18 07:03 030 6 gusting 17 -3.8
2020-Jan-18 06:53 030 6 gusting 18 -3.9
2020-Jan-18 06:43 050 6 gusting 15 -3.8
2020-Jan-18 06:33 050 7 gusting 18 -3.9
2020-Jan-18 06:23 070 6 gusting 14 -4.0
2020-Jan-18 06:13 050 6 gusting 18 -4.1
2020-Jan-18 06:03 010 5 gusting 11 -4.0
2020-Jan-18 05:53 050 5 gusting 13 -4.1
2020-Jan-18 05:43 020 4 gusting 9 -4.1
2020-Jan-18 05:33 010 5 gusting 11 -4.1
2020-Jan-18 05:23 050 5 gusting 14 -4.1
2020-Jan-18 05:13 050 5 gusting 15 -4.2
2020-Jan-18 05:03 180 6 gusting 13 -4.3
2020-Jan-18 04:53 180 4 gusting 11 -4.3
2020-Jan-18 04:43 030 5 gusting 13 -4.4
2020-Jan-18 04:33 070 5 gusting 27 -4.6
2020-Jan-18 04:23 150 5 gusting 18 -4.7
2020-Jan-18 04:13 070 6 gusting 26 -4.8
2020-Jan-18 04:03 050 12 gusting 32 -4.9
2020-Jan-18 03:53 070 13 gusting 35 -5.1
2020-Jan-18 03:43 070 20 gusting 49 -5.2
2020-Jan-18 03:33 080 11 gusting 42 -5.0
2020-Jan-18 03:23 120 6 gusting 24 -4.9
2020-Jan-18 03:13 150 5 gusting 11 -4.7
2020-Jan-18 03:03 110 4 gusting 11 -4.8
2020-Jan-18 02:53 080 5 gusting 18 -4.9
2020-Jan-18 02:43 130 6 gusting 13 -5.0
2020-Jan-18 02:33 140 5 gusting 13 -5.2
2020-Jan-18 02:23 100 6 gusting 19 -5.3
2020-Jan-18 02:13 080 12 gusting 35 -5.5
2020-Jan-18 02:03 060 13 gusting 28 -5.6
2020-Jan-18 01:53 060 12 gusting 29 -5.6
2020-Jan-18 01:43 120 5 gusting 19 -5.6
2020-Jan-18 01:33 070 6 gusting 20 -5.5
2020-Jan-18 01:23 060 7 gusting 21 -5.5
2020-Jan-18 01:13 060 12 gusting 34 -5.5
2020-Jan-18 01:03 060 17 gusting 36 -5.5
2020-Jan-18 00:53 060 14 gusting 47 -5.4
2020-Jan-18 00:43 060 6 gusting 19 -5.0
2020-Jan-18 00:33 080 6 gusting 21 -4.7
2020-Jan-18 00:23 200 5 gusting 11 -4.2
2020-Jan-18 00:13 220 5 gusting 13 -4.0
2020-Jan-17 23:53 190 6 gusting 13 -4.0
2020-Jan-17 23:43 120 6 gusting 18 -4.2
2020-Jan-17 23:33 100 6 gusting 25 -4.2
2020-Jan-17 23:23 130 6 gusting 18 -4.2
2020-Jan-17 23:13 130 6 gusting 27 -4.1
2020-Jan-17 23:03 150 4 gusting 11 -4.0
2020-Jan-17 22:53 270 5 gusting 11 -3.9
2020-Jan-17 22:43 280 5 gusting 12 -3.8
2020-Jan-17 22:33 250 5 gusting 11 -3.7
2020-Jan-17 22:23 270 6 gusting 12 -4.0
2020-Jan-17 22:13 260 6 gusting 13 -3.9
2020-Jan-17 22:03 320 5 gusting 12 -4.1
2020-Jan-17 21:53 250 6 gusting 12 -4.0
2020-Jan-17 21:43 280 4 gusting 12 -4.2
2020-Jan-17 21:33 170 6 gusting 19 -4.2
2020-Jan-17 21:23 160 6 gusting 20 -4.2
2020-Jan-17 21:13 210 5 gusting 13 -4.2
2020-Jan-17 21:03 230 5 gusting 11 -4.3
2020-Jan-17 20:53 160 6 gusting 17 -4.4
2020-Jan-17 20:43 140 6 gusting 18 -4.6
2020-Jan-17 20:33 090 7 gusting 27 -5.0
2020-Jan-17 20:23 070 9 gusting 32 -5.4
2020-Jan-17 20:13 060 12 gusting 29 -5.8
2020-Jan-17 20:03 070 12 gusting 27 -5.7
2020-Jan-17 19:53 070 13 gusting 33 -6.0
2020-Jan-17 19:43 060 13 gusting 31 -6.2
2020-Jan-17 19:33 060 11 gusting 24 -6.3
2020-Jan-17 19:23 060 13 gusting 34 -6.4
2020-Jan-17 19:13 080 8 gusting 24 -6.4
2020-Jan-17 19:03 070 6 gusting 28 -6.5
2020-Jan-17 18:53 070 8 gusting 32 -6.7
2020-Jan-17 18:43 070 6 gusting 18 -6.9
2020-Jan-17 18:33 070 6 gusting 21 -7.0
2020-Jan-17 18:23 060 6 gusting 27 -7.3
2020-Jan-17 18:13 060 9 gusting 32 -7.4
2020-Jan-17 18:03 050 6 gusting 20 -7.5
2020-Jan-17 17:53 090 5 gusting 13 -7.5
2020-Jan-17 17:43 100 5 gusting 14 -7.5
2020-Jan-17 17:33 070 6 gusting 18 -7.6
2020-Jan-17 17:23 050 5 gusting 18 -7.6
2020-Jan-17 17:13 050 4 gusting 12 -7.7
2020-Jan-17 17:03 090 4 gusting 13 -7.7
2020-Jan-17 16:53 070 6 gusting 20 -7.7
2020-Jan-17 16:43 070 5 gusting 13 -7.7
2020-Jan-17 16:33 060 6 gusting 28 -7.6
2020-Jan-17 16:23 050 8 gusting 20 -7.7
2020-Jan-17 16:13 050 5 gusting 21 -7.7
2020-Jan-17 16:03 060 6 gusting 21 -7.8
2020-Jan-17 15:53 100 2 gusting 9 -7.7
2020-Jan-17 15:43 160 5 gusting 13 -7.6
2020-Jan-17 15:33 120 5 gusting 24 -7.6
2020-Jan-17 15:23 160 4 gusting 13 -7.7
2020-Jan-17 15:13 260 4 gusting 11 -7.8
2020-Jan-17 15:03 050 4 gusting 13 -7.8
2020-Jan-17 14:53 050 6 gusting 20 -7.9
2020-Jan-17 14:43 050 6 gusting 20 -7.8
2020-Jan-17 14:33 050 8 gusting 27 -7.9
2020-Jan-17 14:23 060 6 gusting 20 -7.8
2020-Jan-17 14:13 050 8 gusting 22 -7.9
2020-Jan-17 14:03 010 5 gusting 19 -7.7
2020-Jan-17 13:53 060 5 gusting 19 -7.6
2020-Jan-17 13:43 070 5 gusting 14 -7.6
2020-Jan-17 13:33 040 7 gusting 21 -7.7
2020-Jan-17 13:23 030 7 gusting 20 -7.6
2020-Jan-17 13:13 040 9 gusting 28 -7.8
2020-Jan-17 13:03 040 8 gusting 28 -7.8
2020-Jan-17 12:53 040 8 gusting 28 -7.8
2020-Jan-17 12:43 030 7 gusting 22 -7.8
2020-Jan-17 12:33 030 7 gusting 22 -7.8
2020-Jan-17 12:23 030 6 gusting 18 -7.9
2020-Jan-17 12:13 030 9 gusting 25 -8.0
2020-Jan-17 12:03 030 7 gusting 25 -8.0
2020-Jan-17 11:53 030 7 gusting 20 -8.2
2020-Jan-17 11:43 020 9 gusting 24 -8.4
2020-Jan-17 11:33 030 11 gusting 28 -8.4
2020-Jan-17 11:23 020 9 gusting 25 -8.4
2020-Jan-17 11:13 020 7 gusting 22 -8.5
2020-Jan-17 11:03 030 12 gusting 35 -8.5
2020-Jan-17 10:53 020 8 gusting 25 -8.5
2020-Jan-17 10:43 030 12 gusting 28 -8.6
2020-Jan-17 10:33 030 12 gusting 27 -8.6
2020-Jan-17 10:23 030 11 gusting 32 -8.6
2020-Jan-17 10:13 020 7 gusting 27 -8.5
2020-Jan-17 10:03 020 7 gusting 19 -8.6
2020-Jan-17 09:53 020 6 gusting 25 -8.5
2020-Jan-17 09:43 030 7 gusting 31 -8.5
2020-Jan-17 09:33 020 6 gusting 20 -8.5
2020-Jan-17 09:23 020 8 gusting 25 -8.6
2020-Jan-17 09:13 020 6 gusting 20 -8.6
2020-Jan-17 09:03 030 7 gusting 20 -8.6
2020-Jan-17 08:53 010 7 gusting 24 -8.5
2020-Jan-17 08:43 020 8 gusting 21 -8.5
2020-Jan-17 08:33 050 11 gusting 36 -8.5
2020-Jan-17 08:23 070 9 gusting 28 -8.5
2020-Jan-17 08:13 060 6 gusting 14 -8.6
2020-Jan-17 08:03 010 5 gusting 14 -8.5
2020-Jan-17 07:53 360 6 gusting 15 -8.6
2020-Jan-17 07:43 010 4 gusting 11 -8.6
2020-Jan-17 07:33 330 4 gusting 9 -8.6
2020-Jan-17 07:23 310 4 gusting 8 -8.6
2020-Jan-17 07:13 320 4 gusting 8 -8.6
2020-Jan-17 07:03 290 2 gusting 6 -8.5
2020-Jan-17 06:52 280 4 gusting 6 -8.5
2020-Jan-17 06:42 270 4 gusting 6 -8.4
2020-Jan-17 06:33 280 4 gusting 5 -8.2
2020-Jan-17 06:23 270 2 gusting 5 -8.0
2020-Jan-17 06:13 260 2 gusting 4 -7.9
2020-Jan-17 06:03 270 4 gusting 6 -7.8
2020-Jan-17 05:53 090 5 gusting 6 -8.0
2020-Jan-17 05:43 090 5 gusting 6 -8.1
2020-Jan-17 05:33 080 5 gusting 7 -8.1
2020-Jan-17 05:23 030 5 gusting 13 -8.2
2020-Jan-17 05:13 330 6 gusting 17 -8.3
2020-Jan-17 05:03 030 6 gusting 13 -8.4
2020-Jan-17 04:53 360 6 gusting 12 -8.5
2020-Jan-17 04:43 350 8 gusting 14 -8.6
2020-Jan-17 04:33 340 9 gusting 17 -8.6
2020-Jan-17 04:23 350 8 gusting 14 -8.6
2020-Jan-17 04:13 340 8 gusting 15 -8.6
2020-Jan-17 04:03 330 11 gusting 14 -8.6
2020-Jan-17 03:53 330 9 gusting 15 -8.5
2020-Jan-17 03:42 320 12 gusting 19 -8.4
2020-Jan-17 03:33 320 7 gusting 13 -8.2
2020-Jan-17 03:23 340 8 gusting 15 -8.0
2020-Jan-17 03:13 010 6 gusting 12 -7.9
2020-Jan-17 03:03 020 6 gusting 11 -8.0
2020-Jan-17 02:53 360 7 gusting 12 -7.9
2020-Jan-17 02:43 030 6 gusting 11 -7.9
2020-Jan-17 02:33 050 6 gusting 13 -7.9
2020-Jan-17 02:23 040 6 gusting 15 -8.0
2020-Jan-17 02:13 060 6 gusting 20 -8.1
2020-Jan-17 02:03 350 7 gusting 13 -8.0
2020-Jan-17 01:53 360 7 gusting 28 -7.9
2020-Jan-17 01:43 280 5 gusting 9 -7.5
2020-Jan-17 01:33 290 5 gusting 14 -7.5
2020-Jan-17 01:23 270 9 gusting 25 -7.4
2020-Jan-17 01:13 270 6 gusting 20 -7.3
2020-Jan-17 01:03 270 9 gusting 20 -7.2
2020-Jan-17 00:53 270 6 gusting 13 -7.5
2020-Jan-17 00:43 290 6 gusting 14 -7.6
2020-Jan-17 00:32 320 6 gusting 17 -7.7
2020-Jan-17 00:23 330 7 gusting 18 -7.8
2020-Jan-17 00:13 340 6 gusting 17 -7.7
2020-Jan-16 23:53 320 8 gusting 20 -7.6
2020-Jan-16 23:43 350 9 gusting 20 -7.8
2020-Jan-16 23:33 340 8 gusting 15 -7.7
2020-Jan-16 23:23 340 9 gusting 17 -7.7
2020-Jan-16 23:13 030 9 gusting 19 -7.6
2020-Jan-16 23:03 030 7 gusting 22 -7.4
2020-Jan-16 22:53 270 5 gusting 14 -6.9
2020-Jan-16 22:43 300 5 gusting 11 -7.2
2020-Jan-16 22:33 010 7 gusting 19 -7.5
2020-Jan-16 22:23 020 11 gusting 22 -7.6
2020-Jan-16 22:13 030 6 gusting 14 -7.4
2020-Jan-16 22:03 030 5 gusting 13 -7.2
2020-Jan-16 21:53 010 4 gusting 9 -7.2
2020-Jan-16 21:43 030 6 gusting 19 -7.4
2020-Jan-16 21:33 020 6 gusting 14 -7.4
2020-Jan-16 21:23 020 4 gusting 12 -7.0
2020-Jan-16 21:13 290 4 gusting 8 -6.8
2020-Jan-16 21:03 280 4 gusting 9 -6.9
2020-Jan-16 20:53 340 4 gusting 6 -7.2
2020-Jan-16 20:43 300 5 gusting 8 -7.0
2020-Jan-16 20:33 310 2 gusting 5 -7.2
2020-Jan-16 20:23 280 4 gusting 7 -7.3
2020-Jan-16 20:13 070 8 gusting 17 -7.7
2020-Jan-16 20:03 010 6 gusting 13 -7.6
2020-Jan-16 19:53 320 2 gusting 6 -7.6
2020-Jan-16 19:43 290 2 gusting 6 -7.7
2020-Jan-16 19:33 310 4 gusting 8 -7.8
2020-Jan-16 19:23 080 6 gusting 14 -7.9
2020-Jan-16 19:13 060 7 gusting 13 -8.3
2020-Jan-16 19:03 060 5 gusting 13 -8.4
2020-Jan-16 18:53 060 6 gusting 13 -8.5
2020-Jan-16 18:43 050 2 gusting 7 -8.6
2020-Jan-16 18:33 030 1 gusting 5 -9.3
2020-Jan-16 18:23 310 2 gusting 5 -9.3
2020-Jan-16 18:13 350 2 gusting 6 -10.0
2020-Jan-16 18:03 330 1 gusting 6 -9.7
2020-Jan-16 17:53 340 1 gusting 5 -9.7
2020-Jan-16 17:43 290 1 gusting 2 -9.8
2020-Jan-16 17:33 300 2 gusting 6 -10.3
2020-Jan-16 17:23 300 1 gusting 4 -10.2
2020-Jan-16 17:13 310 5 gusting 7 -9.6
2020-Jan-16 17:03 310 1 gusting 2 -9.6
2020-Jan-16 16:53 320 1 gusting 4 -9.7
2020-Jan-16 16:43 300 1 gusting 4 -9.6
2020-Jan-16 16:33 350 5 gusting 9 -9.4
2020-Jan-16 16:23 350 5 gusting 7 -9.6
2020-Jan-16 16:13 350 4 gusting 7 -9.3
2020-Jan-16 16:03 340 5 gusting 8 -9.4
2020-Jan-16 15:53 350 5 gusting 8 -9.5
2020-Jan-16 15:43 350 5 gusting 8 -9.6
2020-Jan-16 15:33 340 4 gusting 8 -9.6
2020-Jan-16 15:23 310 1 gusting 5 -9.4
2020-Jan-16 15:13 280 2 gusting 6 -9.2
2020-Jan-16 15:03 310 4 gusting 8 -9.1
2020-Jan-16 14:53 280 5 gusting 8 -9.0
2020-Jan-16 14:43 010 1 gusting 6 -9.1
2020-Jan-16 14:33 010 4 gusting 9 -9.1
2020-Jan-16 14:23 050 4 gusting 9 -9.0
2020-Jan-16 14:13 020 4 gusting 9 -9.0
2020-Jan-16 14:03 360 6 gusting 13 -8.9